Time;durP1;ratioP1;P1;durP2;ratioP2;P2;SDS_P1;SDS_P2;PMS_P1;PMS_P2;Temp;Humidity;BMP_temperature;BMP_pressure;BME280_temperature;BME280_humidity;BME280_pressure;Samples;Min_cycle;Max_cycle;Signal;HPM_P1;HPM_P2
2022/08/10 00:01:10;;;;;;;4.07;2.90;;;;;;;15.72;80.41;102552.91;5092376;28;20073;-44
2022/08/10 00:03:36;;;;;;;5.68;3.25;;;;;;;15.63;80.47;102547.41;5092213;28;20051;-44
2022/08/10 00:06:01;;;;;;;6.32;3.30;;;;;;;15.61;80.60;102549.09;5091608;28;20043;-44
2022/08/10 00:08:27;;;;;;;5.10;2.65;;;;;;;15.54;80.73;102547.94;5093286;28;20467;-47
2022/08/10 00:10:55;;;;;;;6.25;2.97;;;;;;;15.48;81.16;102543.44;5095869;28;20102;-43
2022/08/10 00:13:21;;;;;;;5.30;2.95;;;;;;;15.50;80.96;102545.19;5094910;28;20489;-44
2022/08/10 00:15:47;;;;;;;7.15;3.08;;;;;;;15.43;81.12;102550.16;5096065;28;20085;-45
2022/08/10 00:18:13;;;;;;;4.50;3.15;;;;;;;15.45;81.48;102545.91;5095949;28;20024;-44
2022/08/10 00:20:38;;;;;;;6.93;3.20;;;;;;;15.44;81.16;102540.66;5094665;28;20388;-47
2022/08/10 00:23:03;;;;;;;7.55;3.20;;;;;;;15.40;81.32;102542.28;5095707;28;20474;-46
2022/08/10 00:25:29;;;;;;;6.65;3.08;;;;;;;15.36;81.66;102537.75;5095283;28;20036;-45
2022/08/10 00:27:54;;;;;;;6.72;2.97;;;;;;;15.30;81.70;102532.38;5095050;28;20020;-44
2022/08/10 00:30:20;;;;;;;5.50;3.28;;;;;;;15.25;81.93;102533.91;5095504;28;20097;-44
2022/08/10 00:32:45;;;;;;;4.72;3.58;;;;;;;15.22;82.13;102528.59;5095577;28;20028;-45
2022/08/10 00:35:11;;;;;;;4.95;3.17;;;;;;;15.20;82.23;102530.25;5094706;28;20028;-44
2022/08/10 00:37:36;;;;;;;6.47;3.55;;;;;;;15.18;82.17;102524.09;5095226;28;20024;-44
2022/08/10 00:40:03;;;;;;;4.90;3.10;;;;;;;15.16;82.58;102526.66;5095383;28;20024;-44
2022/08/10 00:42:29;;;;;;;5.60;3.10;;;;;;;15.07;82.87;102524.59;5094101;28;20078;-45
2022/08/10 00:44:54;;;;;;;6.10;3.65;;;;;;;15.03;82.97;102520.09;5095318;28;20024;-46
2022/08/10 00:47:19;;;;;;;5.22;3.30;;;;;;;14.96;83.37;102525.88;5095167;28;20423;-49
2022/08/10 00:49:45;;;;;;;6.00;2.90;;;;;;;14.93;83.67;102525.78;5094287;28;20020;-47
2022/08/10 00:52:12;;;;;;;5.22;3.40;;;;;;;15.01;83.74;102524.34;5095053;28;20028;-45
2022/08/10 00:54:40;;;;;;;6.15;3.08;;;;;;;14.99;83.91;102518.22;5095086;28;20044;-47
2022/08/10 00:57:05;;;;;;;4.80;3.22;;;;;;;14.97;83.99;102520.75;5094413;28;20016;-45
2022/08/10 00:59:32;;;;;;;6.50;3.22;;;;;;;14.99;83.99;102523.41;5094806;28;20051;-46
2022/08/10 01:01:58;;;;;;;5.10;3.40;;;;;;;14.96;83.98;102520.69;5094838;28;20103;-44
2022/08/10 01:04:24;;;;;;;5.13;3.38;;;;;;;14.92;84.39;102519.69;5094206;28;20115;-44
2022/08/10 01:07:16;;;;;;;5.22;3.75;;;;;;;14.96;84.45;102521.59;5094778;28;20059;-44
2022/08/10 01:10:12;;;;;;;4.78;3.45;;;;;;;15.00;83.60;102516.50;5046551;28;20036;-46
2022/08/10 01:13:08;;;;;;;8.45;3.92;;;;;;;14.99;83.33;102523.41;5094526;28;20191;-45
2022/08/10 01:15:46;;;;;;;5.68;3.53;;;;;;;14.92;84.48;102518.81;5094635;28;20036;-46
2022/08/10 01:18:17;;;;;;;5.75;3.50;;;;;;;14.88;84.63;102517.78;5093984;28;20024;-44
2022/08/10 01:21:15;;;;;;;6.47;3.80;;;;;;;14.91;84.06;102512.75;5094272;28;20105;-45
2022/08/10 01:24:16;;;;;;;5.40;3.95;;;;;;;14.89;83.76;102513.50;5093456;28;20481;-44
2022/08/10 01:26:56;;;;;;;6.30;3.95;;;;;;;14.86;84.33;102508.19;5094249;28;20035;-49
2022/08/10 01:30:04;;;;;;;5.28;3.83;;;;;;;14.88;84.20;102517.78;5094376;28;20032;-47
2022/08/10 01:32:35;;;;;;;4.47;3.67;;;;;;;14.77;85.23;102509.59;5079770;28;20048;-47
2022/08/10 01:35:18;;;;;;;7.78;3.97;;;;;;;14.81;84.93;102511.50;5094395;28;20030;-44
2022/08/10 01:37:50;;;;;;;8.50;3.97;;;;;;;14.74;85.42;102504.28;5093750;28;20043;-44
2022/08/10 01:40:21;;;;;;;7.57;4.30;;;;;;;14.77;85.51;102517.41;5094152;28;20107;-43
2022/08/10 01:42:48;;;;;;;5.80;4.10;;;;;;;14.67;85.76;102512.66;5094004;28;20182;-45
2022/08/10 01:45:15;;;;;;;5.75;4.10;;;;;;;14.68;85.86;102516.13;5093326;28;20122;-44
2022/08/10 01:50:43;;;;;;;9.07;4.50;;;;;;;14.63;86.17;102515.94;5094033;28;20496;-47
2022/08/10 01:53:14;;;;;;;6.97;4.45;;;;;;;14.61;86.32;102512.38;5093317;28;20036;-46
2022/08/10 01:55:41;;;;;;;7.03;4.43;;;;;;;14.59;86.57;102504.53;5093605;28;20565;-47
2022/08/10 01:58:09;;;;;;;8.88;4.20;;;;;;;14.53;86.53;102511.19;5093993;28;20031;-43
2022/08/10 02:00:38;;;;;;;5.15;4.20;;;;;;;14.53;86.87;102508.63;5092827;28;20034;-45
2022/08/10 02:03:06;;;;;;;6.28;4.70;;;;;;;14.49;87.09;102516.25;5093818;28;20036;-43
2022/08/10 02:05:32;;;;;;;7.95;5.03;;;;;;;14.44;87.44;102509.13;5092762;28;20024;-44
2022/08/10 02:08:00;;;;;;;8.57;4.80;;;;;;;14.48;87.46;102516.19;5093812;28;20051;-44
2022/08/10 02:10:28;;;;;;;6.65;4.72;;;;;;;14.46;87.48;102508.34;5093469;28;20028;-45
2022/08/10 02:12:56;;;;;;;7.05;5.05;;;;;;;14.40;87.57;102510.69;5092749;28;20538;-44
2022/08/10 02:15:24;;;;;;;7.03;5.13;;;;;;;14.42;87.64;102501.28;5093535;28;20032;-44
2022/08/10 02:17:56;;;;;;;6.18;5.07;;;;;;;14.35;87.90;102509.63;5093471;28;20077;-45
2022/08/10 02:20:25;;;;;;;6.18;5.03;;;;;;;14.33;88.04;102501.78;5092800;28;20107;-44
2022/08/10 02:23:04;;;;;;;8.63;5.22;;;;;;;14.30;88.25;102499.06;5093354;28;20474;-46
2022/08/10 02:25:31;;;;;;;7.85;5.20;;;;;;;14.28;88.43;102502.41;5093196;28;20024;-44
2022/08/10 02:27:58;;;;;;;7.72;5.43;;;;;;;14.23;88.46;102499.63;5092534;28;20486;-48
2022/08/10 02:30:25;;;;;;;7.93;6.03;;;;;;;14.17;88.94;102499.38;5092512;28;20031;-43
2022/08/10 02:32:51;;;;;;;6.43;5.43;;;;;;;14.15;89.05;102501.91;5093455;28;20028;-45
2022/08/10 02:35:19;;;;;;;7.68;5.60;;;;;;;14.10;89.41;102506.03;5092628;28;20474;-46
2022/08/10 02:37:47;;;;;;;7.75;5.95;;;;;;;14.08;89.76;102505.06;5093219;28;20024;-47
2022/08/10 02:40:13;;;;;;;8.52;6.00;;;;;;;14.05;89.66;102507.53;5093303;28;20055;-44
2022/08/10 02:42:53;;;;;;;8.98;6.18;;;;;;;14.09;89.77;102506.84;5091921;28;20028;-44
2022/08/10 02:45:30;;;;;;;9.77;6.00;;;;;;;14.05;90.23;102510.13;5093161;28;20044;-44
2022/08/10 02:48:11;;;;;;;10.48;6.28;;;;;;;14.09;89.84;102509.44;5092557;28;20025;-47
2022/08/10 02:50:39;;;;;;;9.93;6.47;;;;;;;14.05;90.27;102510.13;5092793;28;20536;-43
2022/08/10 02:53:30;;;;;;;9.05;6.38;;;;;;;14.05;89.74;102499.75;5093002;28;20066;-44
2022/08/10 02:56:15;;;;;;;9.60;6.28;;;;;;;13.98;90.42;102503.81;5078584;28;20043;-43
2022/08/10 02:58:44;;;;;;;7.30;5.95;;;;;;;13.93;91.06;102494.97;5092849;28;20016;-45
2022/08/10 03:01:14;;;;;;;9.70;6.75;;;;;;;13.90;91.04;102493.94;5092960;28;20028;-44
2022/08/10 03:03:59;;;;;;;9.52;6.82;;;;;;;13.88;91.13;102483.50;5091919;28;20035;-46
2022/08/10 03:06:32;;;;;;;12.85;7.38;;;;;;;13.82;91.69;102481.53;5092953;28;20028;-45
2022/08/10 03:08:59;;;;;;;8.15;6.65;;;;;;;13.81;91.48;102484.97;5092322;28;20032;-46
2022/08/10 03:11:29;;;;;;;9.82;7.43;;;;;;;13.80;92.19;102483.19;5092688;28;20050;-47
2022/08/10 03:13:57;;;;;;;11.25;7.25;;;;;;;13.82;92.12;102481.53;5092826;28;20020;-44
2022/08/10 03:16:25;;;;;;;10.02;7.05;;;;;;;13.73;92.16;102475.09;5092010;28;20052;-46
2022/08/10 03:18:53;;;;;;;10.60;6.60;;;;;;;13.70;92.45;102481.03;5092998;28;20028;-46
2022/08/10 03:21:20;;;;;;;7.60;6.72;;;;;;;13.72;92.74;102474.19;5092663;28;20028;-45
2022/08/10 03:23:47;;;;;;;8.75;7.15;;;;;;;13.71;92.68;102481.91;5091955;28;20024;-45
2022/08/10 03:26:15;;;;;;;10.13;7.18;;;;;;;13.71;93.02;102471.53;5092590;28;20039;-44
2022/08/10 03:28:40;;;;;;;9.13;6.93;;;;;;;13.66;92.92;102471.34;5092458;28;20024;-45
2022/08/10 03:31:06;;;;;;;13.43;7.18;;;;;;;13.66;93.09;102479.13;5092093;28;20047;-48
2022/08/10 03:33:35;;;;;;;9.05;6.95;;;;;;;13.62;93.39;102472.00;5092542;28;20043;-44
2022/08/10 03:36:01;;;;;;;10.32;7.07;;;;;;;13.59;93.46;102471.91;5092761;28;20032;-45
2022/08/10 03:38:26;;;;;;;12.65;7.28;;;;;;;13.53;93.47;102472.53;5091475;28;20020;-44
2022/08/10 03:40:55;;;;;;;10.43;7.65;;;;;;;13.56;93.87;102476.97;5092573;28;20031;-44
2022/08/10 03:43:22;;;;;;;9.77;7.47;;;;;;;13.50;94.22;102478.47;5093662;28;20048;-44
2022/08/10 03:45:50;;;;;;;9.02;7.38;;;;;;;13.52;94.26;102480.19;5095355;28;20374;-46
2022/08/10 03:48:18;;;;;;;9.07;6.50;;;;;;;13.46;94.34;102478.25;5096512;28;20060;-44
2022/08/10 03:50:44;;;;;;;9.52;7.22;;;;;;;13.44;94.70;102480.78;5096240;28;20099;-44
2022/08/10 03:53:10;;;;;;;8.55;7.30;;;;;;;13.45;94.85;102479.97;5095537;28;20027;-44
2022/08/10 03:55:36;;;;;;;8.25;6.95;;;;;;;13.46;95.05;102478.25;5095915;28;20024;-44
2022/08/10 03:58:02;;;;;;;14.88;7.72;;;;;;;13.39;95.01;102484.88;5095500;28;20378;-44
2022/08/10 04:00:33;;;;;;;11.30;7.55;;;;;;;13.40;95.29;102481.47;5096060;28;20054;-44
2022/08/10 04:03:03;;;;;;;10.65;8.10;;;;;;;13.39;95.43;102479.69;5096277;28;20044;-44
2022/08/10 04:05:29;;;;;;;10.43;7.47;;;;;;;13.40;95.59;102488.31;5094930;28;20028;-44
2022/08/10 04:07:56;;;;;;;10.30;7.30;;;;;;;13.34;95.64;102488.91;5096007;28;20039;-45
2022/08/10 04:10:21;;;;;;;10.18;7.53;;;;;;;13.30;95.76;102479.25;5095621;28;20368;-45
2022/08/10 04:12:46;;;;;;;10.02;7.55;;;;;;;13.32;95.92;102480.19;5094971;28;20102;-44
2022/08/10 04:15:12;;;;;;;9.20;7.40;;;;;;;13.32;96.17;102478.50;5095937;28;20068;-43
2022/08/10 04:17:37;;;;;;;9.85;6.88;;;;;;;13.30;96.24;102480.13;5095569;28;20020;-45
2022/08/10 04:20:05;;;;;;;12.20;7.93;;;;;;;13.23;96.24;102483.25;5095091;28;20022;-46
2022/08/10 04:22:32;;;;;;;9.15;7.13;;;;;;;13.28;96.59;102488.63;5095374;28;20028;-45
2022/08/10 04:25:02;;;;;;;9.90;7.77;;;;;;;13.27;96.52;102489.44;5095853;28;20024;-45
2022/08/10 04:27:28;;;;;;;9.20;7.22;;;;;;;13.21;96.72;102486.56;5094612;28;20831;-47
2022/08/10 04:29:54;;;;;;;12.20;7.95;;;;;;;13.21;96.71;102492.66;5095501;28;20356;-44
2022/08/10 04:32:21;;;;;;;12.27;8.50;;;;;;;13.22;97.41;102484.09;5095470;28;20573;-43
2022/08/10 04:34:48;;;;;;;11.95;8.13;;;;;;;13.17;97.17;102489.03;5094599;28;20028;-47
2022/08/10 04:37:16;;;;;;;10.75;7.72;;;;;;;13.16;97.40;102487.25;5095403;28;20031;-44
2022/08/10 04:39:42;;;;;;;12.48;7.88;;;;;;;13.25;97.72;102488.50;5095279;28;20250;-44
2022/08/10 04:42:08;;;;;;;11.15;7.30;;;;;;;13.20;97.23;102493.47;5094683;28;20032;-44
2022/08/10 04:44:33;;;;;;;10.27;8.10;;;;;;;13.17;97.43;102491.63;5094914;28;20040;-44
2022/08/10 04:46:58;;;;;;;8.70;7.53;;;;;;;13.17;97.53;102486.44;5095325;28;20482;-45
2022/08/10 04:49:24;;;;;;;9.68;7.90;;;;;;;13.23;97.65;102490.13;5094258;28;20028;-44
2022/08/10 04:51:49;;;;;;;12.15;8.02;;;;;;;13.18;97.56;102485.63;5095169;28;20081;-44
2022/08/10 04:54:14;;;;;;;11.23;8.00;;;;;;;13.23;97.76;102478.06;5094007;28;20035;-44
2022/08/10 04:56:39;;;;;;;10.35;8.20;;;;;;;13.23;97.77;102479.78;5094761;28;20072;-45
2022/08/10 04:59:07;;;;;;;13.15;8.43;;;;;;;13.25;98.06;102485.94;5095020;28;20035;-43
2022/08/10 05:01:33;;;;;;;11.30;8.75;;;;;;;13.26;98.20;102482.50;5093828;28;20463;-43
2022/08/10 05:03:59;;;;;;;11.35;9.02;;;;;;;13.28;98.40;102480.88;5094738;28;20382;-44
2022/08/10 05:06:24;;;;;;;9.80;8.23;;;;;;;13.36;98.40;102483.81;5094501;28;20467;-43
2022/08/10 05:08:49;;;;;;;10.23;8.32;;;;;;;13.41;98.42;102477.16;5094018;28;20169;-44
2022/08/10 05:11:14;;;;;;;11.85;8.45;;;;;;;13.50;98.26;102475.88;5095007;28;20027;-43
2022/08/10 05:13:40;;;;;;;12.65;8.77;;;;;;;13.51;98.61;102484.50;5094646;28;20031;-44
2022/08/10 05:16:05;;;;;;;12.45;9.10;;;;;;;13.53;98.52;102477.72;5094023;28;20050;-44
2022/08/10 05:18:30;;;;;;;10.45;8.65;;;;;;;13.60;98.45;102484.03;5094371;28;20086;-43
2022/08/10 05:20:56;;;;;;;9.50;8.20;;;;;;;13.65;98.51;102482.53;5094527;28;20505;-44
2022/08/10 05:23:21;;;;;;;12.10;9.23;;;;;;;13.71;98.73;102485.38;5093821;28;20028;-45
2022/08/10 05:25:46;;;;;;;13.77;9.05;;;;;;;13.79;98.33;102486.59;5094436;28;20035;-43
2022/08/10 05:28:11;;;;;;;13.80;9.52;;;;;;;13.85;98.33;102485.94;5094413;28;20547;-49
2022/08/10 05:30:37;;;;;;;13.02;9.25;;;;;;;13.95;98.40;102492.44;5093395;28;20016;-44
2022/08/10 05:33:02;;;;;;;13.65;8.80;;;;;;;14.02;97.84;102497.06;5094342;28;20028;-44
2022/08/10 05:35:29;;;;;;;12.48;9.25;;;;;;;14.10;97.51;102493.06;5094090;28;20028;-43
2022/08/10 05:37:55;;;;;;;10.73;8.75;;;;;;;14.18;97.56;102492.47;5093928;28;20028;-45
2022/08/10 05:40:22;;;;;;;13.25;9.23;;;;;;;14.25;97.36;102502.28;5094110;28;20029;-43
2022/08/10 05:42:47;;;;;;;15.48;8.88;;;;;;;14.30;97.38;102493.00;5094160;28;20024;-43
2022/08/10 05:45:23;;;;;;;10.82;9.20;;;;;;;14.40;97.41;102502.03;5093397;28;20028;-45
2022/08/10 05:47:48;;;;;;;13.43;9.20;;;;;;;14.48;97.01;102496.31;5094078;28;20475;-44
2022/08/10 05:50:15;;;;;;;13.05;8.65;;;;;;;14.55;96.64;102496.56;5093964;28;20106;-44
2022/08/10 05:52:41;;;;;;;13.90;9.95;;;;;;;14.69;96.05;102492.81;5092901;28;20520;-44
2022/08/10 05:55:08;;;;;;;12.45;9.10;;;;;;;14.74;96.10;102488.69;5093975;28;20107;-45
2022/08/10 05:57:35;;;;;;;13.32;9.45;;;;;;;14.88;96.50;102490.97;5092808;28;20360;-43
2022/08/10 06:00:05;;;;;;;11.90;9.20;;;;;;;14.98;95.27;102493.09;5093968;28;20078;-44
2022/08/10 06:02:32;;;;;;;15.07;9.80;;;;;;;15.05;94.42;102492.47;5093498;28;20016;-45
2022/08/10 06:05:02;;;;;;;12.48;9.05;;;;;;;15.16;93.78;102500.69;5092621;28;20024;-47
2022/08/10 06:07:29;;;;;;;13.48;9.07;;;;;;;15.27;93.52;102495.88;5093228;28;20120;-44
2022/08/10 06:09:56;;;;;;;15.98;9.38;;;;;;;15.38;93.69;102494.56;5093829;28;20077;-44
2022/08/10 06:12:26;;;;;;;11.52;9.48;;;;;;;15.47;93.47;102499.19;5092849;28;20106;-44
2022/08/10 06:15:02;;;;;;;14.27;9.02;;;;;;;15.63;92.48;102490.22;5093529;28;20076;-44
2022/08/10 06:17:30;;;;;;;13.43;8.93;;;;;;;15.69;92.35;102494.78;5093373;28;20028;-45
2022/08/10 06:19:57;;;;;;;12.65;9.10;;;;;;;15.80;90.77;102494.31;5092684;28;20380;-44
2022/08/10 06:22:25;;;;;;;11.60;9.38;;;;;;;15.90;90.59;102499.84;5093304;28;20102;-43
2022/08/10 06:24:56;;;;;;;11.70;8.93;;;;;;;16.03;89.44;102490.75;5093504;28;20043;-45
2022/08/10 06:27:21;;;;;;;15.10;9.30;;;;;;;16.20;89.22;102493.91;5092392;28;20027;-47
2022/08/10 06:29:48;;;;;;;12.35;9.07;;;;;;;16.33;88.05;102500.38;5093161;28;20024;-45
2022/08/10 06:32:15;;;;;;;9.63;8.07;;;;;;;16.41;87.46;102498.91;5093235;28;20390;-44
2022/08/10 06:34:52;;;;;;;13.52;8.40;;;;;;;16.56;87.05;102503.72;5092178;28;20386;-44
2022/08/10 06:37:21;;;;;;;11.50;8.13;;;;;;;16.69;86.46;102500.66;5093349;28;20059;-48
2022/08/10 06:39:47;;;;;;;13.48;8.93;;;;;;;16.79;86.34;102497.50;5092246;28;20474;-43
2022/08/10 06:42:25;;;;;;;16.25;9.18;;;;;;;16.87;86.01;102499.44;5093049;28;20045;-44
2022/08/10 06:44:55;;;;;;;12.73;9.02;;;;;;;16.93;83.67;102491.88;5092799;28;20109;-43
2022/08/10 06:47:25;;;;;;;14.60;9.00;;;;;;;16.99;83.26;102494.66;5092539;28;20020;-43
2022/08/10 06:49:54;;;;;;;13.65;9.52;;;;;;;17.07;82.86;102503.56;5093246;28;20031;-45
2022/08/10 06:52:21;;;;;;;13.50;8.98;;;;;;;17.14;82.39;102503.75;5092962;28;20092;-43
2022/08/10 06:54:52;;;;;;;13.02;8.52;;;;;;;17.22;81.85;102494.41;5092083;28;20036;-45
2022/08/10 06:57:19;;;;;;;22.83;8.93;;;;;;;17.27;81.85;102500.66;5093218;28;20052;-43
2022/08/10 06:59:46;;;;;;;11.88;8.15;;;;;;;17.43;80.92;102497.63;5092813;28;20387;-45
2022/08/10 07:02:20;;;;;;;11.35;8.48;;;;;;;17.47;81.67;102508.13;5092253;28;20031;-45
2022/08/10 07:04:53;;;;;;;12.52;8.02;;;;;;;17.57;81.45;102505.84;5092698;28;20356;-45
2022/08/10 07:07:23;;;;;;;12.85;7.60;;;;;;;17.70;79.73;102501.84;5092737;28;20123;-47
2022/08/10 07:09:50;;;;;;;12.27;8.20;;;;;;;17.84;79.61;102503.91;5092353;28;20020;-44
2022/08/10 07:12:19;;;;;;;12.02;8.20;;;;;;;17.97;77.64;102511.22;5093040;28;20031;-45
2022/08/10 07:14:45;;;;;;;11.40;8.02;;;;;;;18.07;78.30;102508.00;5092514;28;20032;-44
2022/08/10 07:17:18;;;;;;;14.07;7.88;;;;;;;18.24;75.36;102504.94;5093986;28;20028;-49
2022/08/10 07:19:54;;;;;;;12.07;7.75;;;;;;;18.30;75.05;102514.66;5096921;28;20028;-47
2022/08/10 07:22:23;;;;;;;11.43;7.80;;;;;;;18.42;73.54;102507.13;5095919;28;20470;-43
2022/08/10 07:24:50;;;;;;;9.13;6.68;;;;;;;18.61;74.84;102508.44;5096698;28;20478;-43
2022/08/10 07:27:17;;;;;;;9.95;7.00;;;;;;;18.75;73.51;102507.00;5096781;28;20042;-44
2022/08/10 07:29:43;;;;;;;10.18;7.28;;;;;;;18.86;73.13;102506.34;5095681;28;20024;-47
2022/08/10 07:32:11;;;;;;;10.23;6.80;;;;;;;18.99;72.66;102513.66;5096509;28;20055;-49
2022/08/10 07:34:38;;;;;;;10.70;7.05;;;;;;;19.07;73.04;102512.09;5096201;28;20039;-44
2022/08/10 07:37:06;;;;;;;9.97;6.57;;;;;;;19.23;72.15;102515.00;5095965;28;20031;-46
2022/08/10 07:39:36;;;;;;;9.25;6.22;;;;;;;19.33;70.70;102513.47;5096340;28;20274;-45
2022/08/10 07:42:03;;;;;;;11.95;6.95;;;;;;;19.41;69.96;102514.50;5096643;28;20028;-44
2022/08/10 07:44:30;;;;;;;9.63;6.85;;;;;;;19.55;69.50;102510.41;5095038;28;20089;-46
2022/08/10 07:46:59;;;;;;;11.93;6.77;;;;;;;19.65;68.93;102511.47;5096345;28;20082;-44
2022/08/10 07:49:26;;;;;;;11.80;6.63;;;;;;;19.76;68.07;102519.50;5096205;28;20629;-46
2022/08/10 07:51:55;;;;;;;10.80;6.53;;;;;;;19.90;67.02;102511.94;5095590;28;20046;-44
2022/08/10 07:54:22;;;;;;;9.30;5.70;;;;;;;20.11;66.59;102515.78;5096226;28;20028;-44
2022/08/10 07:56:50;;;;;;;;;;;;;;;20.14;69.62;102514.09;5096584;28;20378;-45
2022/08/10 07:59:34;;;;;;;10.40;6.15;;;;;;;20.30;67.10;102520.44;5095348;28;19959;-44
2022/08/10 08:02:02;;;;;;;11.73;5.70;;;;;;;20.63;65.21;102513.97;5096248;28;20024;-45
2022/08/10 08:04:28;;;;;;;10.23;6.00;;;;;;;20.64;65.58;102517.47;5095104;28;20035;-48
2022/08/10 08:06:57;;;;;;;10.40;6.00;;;;;;;20.81;65.48;102512.50;5096211;28;20420;-44
2022/08/10 08:09:25;;;;;;;10.45;5.18;;;;;;;20.98;64.97;102513.59;5095776;28;20024;-46
2022/08/10 08:11:53;;;;;;;8.88;4.97;;;;;;;21.07;63.63;102517.19;5095015;28;20028;-45
2022/08/10 08:14:20;;;;;;;;;;;;;;;21.14;66.24;102514.66;5096038;28;20429;-44
2022/08/10 08:16:50;;;;;;;13.35;5.47;;;;;;;21.35;61.73;102518.41;5095754;28;19951;-45
2022/08/10 08:19:18;;;;;;;10.95;5.40;;;;;;;21.35;62.08;102521.88;5095391;28;20020;-48
2022/08/10 08:21:44;;;;;;;10.32;5.65;;;;;;;21.47;61.66;102515.03;5095724;28;20028;-46
2022/08/10 08:24:12;;;;;;;8.77;5.38;;;;;;;21.56;60.08;102515.16;5095468;28;20517;-44
2022/08/10 08:26:39;;;;;;;10.98;4.97;;;;;;;21.90;59.99;102520.75;5094859;28;20031;-46
2022/08/10 08:29:09;;;;;;;10.48;5.47;;;;;;;22.09;58.56;102519.16;5094769;28;20497;-44
2022/08/10 08:31:35;;;;;;;10.02;5.43;;;;;;;22.20;58.52;102512.22;5095343;28;20031;-44
2022/08/10 08:34:03;;;;;;;8.20;5.00;;;;;;;22.25;58.15;102509.66;5094838;28;20028;-44
2022/08/10 08:36:29;;;;;;;10.07;4.63;;;;;;;22.35;57.07;102513.25;5095265;28;20062;-44
2022/08/10 08:38:55;;;;;;;11.00;4.80;;;;;;;22.43;56.84;102514.19;5095443;28;20020;-45
2022/08/10 08:41:31;;;;;;;8.40;5.10;;;;;;;22.53;58.02;102510.75;5094687;28;20043;-45
2022/08/10 08:44:20;;;;;;;9.05;4.82;;;;;;;22.52;58.47;102509.00;5095219;28;20047;-44
2022/08/10 08:46:57;;;;;;;6.75;4.43;;;;;;;22.62;56.08;102502.06;5094456;28;20029;-44
2022/08/10 08:49:58;;;;;;;8.55;5.00;;;;;;;22.81;58.06;102510.91;5094908;28;20031;-44
2022/08/10 08:52:38;;;;;;;7.47;4.65;;;;;;;22.86;56.77;102508.28;4993168;28;20413;-45
2022/08/10 08:55:30;;;;;;;9.40;4.72;;;;;;;23.03;57.11;102511.00;5083008;28;20036;-45
2022/08/10 08:58:14;;;;;;;7.40;4.20;;;;;;;23.19;55.50;102509.34;5095275;28;20074;-47
2022/08/10 09:00:44;;;;;;;9.18;3.85;;;;;;;23.49;53.49;102511.16;5094148;28;20032;-45
2022/08/10 09:03:28;;;;;;;11.90;4.40;;;;;;;23.63;53.52;102512.97;5095077;28;20093;-44
2022/08/10 09:06:27;;;;;;;6.53;4.05;;;;;;;23.77;53.33;102510.31;5094894;28;20027;-44
2022/08/10 09:09:14;;;;;;;14.00;4.40;;;;;;;23.93;51.30;102506.88;5094013;28;20368;-46
2022/08/10 09:11:59;;;;;;;7.57;3.42;;;;;;;24.32;51.70;102504.22;5094549;28;20056;-44
2022/08/10 09:14:43;;;;;;;8.73;3.58;;;;;;;24.35;50.12;102503.31;5093569;28;20032;-48
2022/08/10 09:17:18;;;;;;;9.10;4.05;;;;;;;24.41;49.55;102496.28;5094869;28;20020;-46
2022/08/10 09:20:06;;;;;;;6.40;3.63;;;;;;;24.64;51.62;102495.38;5094706;28;20024;-47
2022/08/10 09:23:17;;;;;;;8.45;3.92;;;;;;;24.81;51.89;102500.59;5093561;28;20030;-44
2022/08/10 09:25:51;;;;;;;9.18;3.80;;;;;;;25.00;48.08;102498.78;5089521;28;20047;-46
2022/08/10 09:28:30;;;;;;;6.18;3.17;;;;;;;25.04;48.33;102494.38;5094579;28;20111;-44
2022/08/10 09:31:01;;;;;;;11.48;3.10;;;;;;;25.43;49.46;102488.00;5094329;28;20103;-47
2022/08/10 09:33:57;;;;;;;8.13;3.28;;;;;;;25.59;47.21;102482.59;5094344;28;20055;-45
2022/08/10 09:36:36;;;;;;;9.30;3.05;;;;;;;25.72;45.06;102479.00;5093480;28;20070;-45
2022/08/10 09:39:20;;;;;;;7.03;3.40;;;;;;;26.20;46.97;102481.25;5094142;28;20395;-45
2022/08/10 09:42:17;;;;;;;8.60;3.00;;;;;;;26.43;45.49;102480.09;5094174;28;20035;-44
2022/08/10 09:44:45;;;;;;;8.35;2.95;;;;;;;27.02;44.34;102482.94;5092841;28;20052;-44
2022/08/10 09:47:42;;;;;;;6.22;3.05;;;;;;;27.00;44.09;102478.56;5094087;28;20055;-45
2022/08/10 09:50:36;;;;;;;8.80;3.15;;;;;;;27.49;43.13;102477.00;5093505;28;20020;-46
2022/08/10 09:53:23;;;;;;;8.40;2.80;;;;;;;28.19;40.00;102474.09;5094136;28;20051;-44
2022/08/10 09:56:19;;;;;;;6.90;3.20;;;;;;;27.99;41.52;102471.78;5093950;28;20028;-45
2022/08/10 09:58:44;;;;;;;10.20;3.05;;;;;;;28.48;38.56;102467.34;5093310;28;20035;-44
2022/08/10 10:01:39;;;;;;;10.60;3.30;;;;;;;28.41;39.95;102469.25;5093964;28;20077;-45
2022/08/10 10:04:27;;;;;;;6.85;3.03;;;;;;;28.64;37.26;102465.25;5093084;28;20055;-46
2022/08/10 10:06:57;;;;;;;5.30;2.88;;;;;;;29.47;36.34;102465.25;5093898;28;20071;-46
2022/08/10 10:09:40;;;;;;;6.65;2.60;;;;;;;29.61;36.15;102455.16;5093602;28;20024;-47
2022/08/10 10:12:36;;;;;;;4.68;2.83;;;;;;;29.67;35.02;102455.00;5092812;28;20028;-46
2022/08/10 10:15:24;;;;;;;5.35;2.92;;;;;;;29.96;32.92;102455.19;5093779;28;20024;-49
2022/08/10 10:18:04;;;;;;;6.35;2.70;;;;;;;30.94;32.79;102450.63;5092714;28;20530;-47
2022/08/10 10:20:52;;;;;;;9.07;3.17;;;;;;;31.98;32.34;102450.78;5093355;28;20024;-47
2022/08/10 10:23:51;;;;;;;7.18;3.30;;;;;;;32.86;29.61;102444.00;5046413;28;20036;-47
2022/08/10 10:26:36;;;;;;;7.75;2.90;;;;;;;33.35;29.44;102434.06;5092769;28;20039;-45
2022/08/10 10:29:17;;;;;;;5.63;2.50;;;;;;;34.02;28.61;102437.41;5093352;28;20024;-48
2022/08/10 10:31:53;;;;;;;4.75;2.80;;;;;;;34.30;26.96;102437.03;5074234;28;20028;-45
2022/08/10 10:34:34;;;;;;;9.90;2.90;;;;;;;34.60;27.11;102441.06;5093137;28;20089;-46
2022/08/10 10:37:01;;;;;;;6.30;2.85;;;;;;;34.82;25.25;102432.84;5093432;28;20035;-49
2022/08/10 10:39:27;;;;;;;;;;;;;;;35.53;28.96;102432.06;5092680;28;20024;-46
2022/08/10 10:42:08;;;;;;;8.13;2.55;;;;;;;35.46;24.42;102432.44;5093144;28;19962;-47
2022/08/10 10:45:20;;;;;;;6.28;2.70;;;;;;;35.70;26.14;102425.84;5092552;28;20474;-46
2022/08/10 10:48:11;;;;;;;8.68;2.70;;;;;;;36.38;25.02;102427.59;5070247;28;20535;-46
2022/08/10 10:50:55;;;;;;;9.40;2.80;;;;;;;36.31;23.63;102419.94;5092971;28;20024;-49
2022/08/10 10:53:33;;;;;;;12.18;3.00;;;;;;;36.17;23.82;102421.59;5091771;28;20024;-49
2022/08/10 10:56:03;;;;;;;6.22;2.50;;;;;;;36.55;23.16;102417.75;5092969;28;20497;-46
2022/08/10 10:59:06;;;;;;;7.35;2.58;;;;;;;37.03;24.73;102407.88;5092762;28;20030;-45
2022/08/10 11:01:34;;;;;;;9.50;2.88;;;;;;;37.37;22.21;102405.88;5092014;28;20034;-46
2022/08/10 11:04:37;;;;;;;6.43;2.80;;;;;;;37.92;23.03;102403.47;5093026;28;20028;-46
2022/08/10 11:07:23;;;;;;;10.55;2.75;;;;;;;38.04;23.03;102401.84;5092065;28;20040;-48
2022/08/10 11:09:55;;;;;;;7.40;2.67;;;;;;;38.05;20.46;102396.34;5093047;28;20043;-49
2022/08/10 11:12:35;;;;;;;8.75;2.67;;;;;;;38.05;21.42;102395.47;5092835;28;20055;-47
2022/08/10 11:15:08;;;;;;;5.75;2.45;;;;;;;37.84;20.40;102393.19;5092003;28;20043;-45
2022/08/10 11:18:00;;;;;;;7.60;2.60;;;;;;;38.20;21.28;102382.88;5092474;28;20363;-45
2022/08/10 11:20:48;;;;;;;8.52;2.40;;;;;;;38.05;21.71;102388.28;5092708;28;20020;-48
2022/08/10 11:23:35;;;;;;;4.18;2.50;;;;;;;38.52;20.91;102383.50;5092273;28;20063;-46
2022/08/10 11:26:07;;;;;;;6.05;2.50;;;;;;;38.56;20.60;102381.47;5092903;28;20028;-48
2022/08/10 11:28:39;;;;;;;9.57;2.65;;;;;;;38.36;19.73;102383.66;5091778;28;20028;-48
2022/08/10 11:31:32;;;;;;;4.30;2.40;;;;;;;39.09;19.77;102386.94;5092822;28;20027;-46
2022/08/10 11:34:18;;;;;;;6.10;2.53;;;;;;;39.07;19.74;102391.56;5091787;28;20070;-46
2022/08/10 11:36:43;;;;;;;;;;;;;;;39.72;20.04;102378.19;5092337;28;20052;-45
2022/08/10 11:39:23;;;;;;;7.07;2.53;;;;;;;39.24;20.17;102385.09;5092606;28;19962;-46
2022/08/10 11:41:57;;;;;;;5.15;2.65;;;;;;;38.84;20.01;102376.97;5092573;28;20028;-47
2022/08/10 11:44:46;;;;;;;7.05;2.45;;;;;;;39.42;19.91;102382.94;5091239;28;20068;-47
2022/08/10 11:47:18;;;;;;;9.38;2.58;;;;;;;38.83;19.11;102384.19;5092693;28;20035;-49
2022/08/10 11:49:58;;;;;;;5.25;2.20;;;;;;;39.25;19.52;102378.69;5091831;28;20443;-46